MSR921 OBBI-HECA
Flight info
| Callsign | MSR921 |
|---|---|
| Flight time | 2h 54m |
| Altitude | 36000 |
| Route | BHR300/30R BHR B457 NARMI N697 HIL T540 ENABI L550 NOVPA N697 MENLI |
| Aircraft | A320/M-SDE3FGHIRWY/LB1 |
Departure
| Time | 2026-05-08 16:15 |
|---|---|
| Airport | Bahrain International Airport (OBBI) |
Arrival
| Time | 2026-05-08 19:09 |
|---|---|
| Airport | Cairo International Airport (HECA) |
| Time | Latitude | Longitude | Altitude | Speed | Heading |
|---|---|---|---|---|---|
| 2026-05-08 15:49 | 26.26717 | 50.63215 | 21 ft | 0 kts | 213° |
| 2026-05-08 16:02 | 26.26729 | 50.63224 | 22 ft | 3 kts | 212° |
| 2026-05-08 16:02 | 26.26749 | 50.63237 | 19 ft | 3 kts | 210° |
| 2026-05-08 16:02 | 26.26770 | 50.63250 | 22 ft | 3 kts | 205° |
| 2026-05-08 16:03 | 26.26792 | 50.63260 | 21 ft | 3 kts | 192° |
| 2026-05-08 16:03 | 26.26813 | 50.63261 | 21 ft | 3 kts | 150° |
| 2026-05-08 16:03 | 26.26820 | 50.63255 | 20 ft | 0 kts | 123° |
| 2026-05-08 16:05 | 26.26820 | 50.63256 | 20 ft | 1 kts | 122° |
| 2026-05-08 16:05 | 26.26820 | 50.63257 | 20 ft | 0 kts | 122° |
| 2026-05-08 16:06 | 26.26818 | 50.63260 | 21 ft | 2 kts | 122° |
| 2026-05-08 16:06 | 26.26807 | 50.63280 | 23 ft | 5 kts | 120° |
| 2026-05-08 16:06 | 26.26782 | 50.63325 | 19 ft | 8 kts | 122° |
| 2026-05-08 16:06 | 26.26750 | 50.63381 | 19 ft | 9 kts | 122° |
| 2026-05-08 16:07 | 26.26712 | 50.63447 | 19 ft | 11 kts | 123° |
| 2026-05-08 16:07 | 26.26667 | 50.63522 | 19 ft | 12 kts | 123° |
| 2026-05-08 16:07 | 26.26627 | 50.63591 | 19 ft | 11 kts | 123° |
| 2026-05-08 16:07 | 26.26584 | 50.63664 | 19 ft | 12 kts | 123° |
| 2026-05-08 16:08 | 26.26575 | 50.63747 | 21 ft | 12 kts | 49° |
| 2026-05-08 16:08 | 26.26613 | 50.63823 | 19 ft | 12 kts | 105° |
| 2026-05-08 16:08 | 26.26561 | 50.63914 | 21 ft | 17 kts | 122° |
| 2026-05-08 16:08 | 26.26499 | 50.64020 | 19 ft | 17 kts | 123° |
| 2026-05-08 16:09 | 26.26446 | 50.64113 | 20 ft | 13 kts | 122° |
| 2026-05-08 16:09 | 26.26412 | 50.64173 | 19 ft | 14 kts | 123° |
| 2026-05-08 16:09 | 26.26338 | 50.64299 | 19 ft | 15 kts | 123° |
| 2026-05-08 16:09 | 26.26276 | 50.64403 | 19 ft | 17 kts | 122° |
| 2026-05-08 16:10 | 26.26217 | 50.64510 | 19 ft | 11 kts | 123° |
| 2026-05-08 16:10 | 26.26170 | 50.64591 | 19 ft | 16 kts | 122° |
| 2026-05-08 16:10 | 26.26098 | 50.64714 | 20 ft | 20 kts | 123° |
| 2026-05-08 16:10 | 26.26042 | 50.64811 | 21 ft | 9 kts | 122° |
| 2026-05-08 16:11 | 26.26018 | 50.64880 | 19 ft | 10 kts | 94° |
| 2026-05-08 16:11 | 26.26031 | 50.64943 | 20 ft | 6 kts | 60° |
| 2026-05-08 16:11 | 26.26032 | 50.64944 | 20 ft | 0 kts | 58° |
| 2026-05-08 16:12 | 26.26037 | 50.64953 | 20 ft | 4 kts | 56° |
| 2026-05-08 16:13 | 26.26068 | 50.64983 | 23 ft | 9 kts | 34° |
| 2026-05-08 16:13 | 26.26128 | 50.65011 | 22 ft | 9 kts | 2° |
| 2026-05-08 16:13 | 26.26169 | 50.64954 | 23 ft | 11 kts | 302° |
| 2026-05-08 16:13 | 26.26213 | 50.64877 | 20 ft | 13 kts | 303° |
| 2026-05-08 16:14 | 26.26265 | 50.64786 | 19 ft | 14 kts | 301° |
| 2026-05-08 16:14 | 26.26320 | 50.64689 | 19 ft | 16 kts | 302° |
| 2026-05-08 16:14 | 26.26494 | 50.64388 | 18 ft | 86 kts | 303° |
| 2026-05-08 16:14 | 26.26942 | 50.63612 | 19 ft | 149 kts | 303° |
| 2026-05-08 16:15 | 26.27542 | 50.62578 | 323 ft | 176 kts | 304° |
| 2026-05-08 16:15 | 26.28231 | 50.61380 | 695 ft | 194 kts | 304° |
| 2026-05-08 16:15 | 26.28997 | 50.60036 | 953 ft | 217 kts | 304° |
| 2026-05-08 16:15 | 26.29849 | 50.58558 | 1330 ft | 233 kts | 304° |
| 2026-05-08 16:16 | 26.30686 | 50.56968 | 1838 ft | 243 kts | 293° |
| 2026-05-08 16:16 | 26.30972 | 50.55092 | 2616 ft | 249 kts | 278° |
| 2026-05-08 16:16 | 26.30925 | 50.53149 | 3316 ft | 255 kts | 271° |
| 2026-05-08 16:16 | 26.30780 | 50.51153 | 3954 ft | 260 kts | 271° |
| 2026-05-08 16:17 | 26.30628 | 50.49146 | 4689 ft | 261 kts | 271° |
| 2026-05-08 16:17 | 26.30541 | 50.47808 | 5140 ft | 263 kts | 271° |
| 2026-05-08 16:17 | 26.30400 | 50.45053 | 6000 ft | 269 kts | 272° |
| 2026-05-08 16:17 | 26.30321 | 50.42945 | 6581 ft | 275 kts | 271° |
| 2026-05-08 16:18 | 26.30255 | 50.40793 | 7152 ft | 281 kts | 270° |
| 2026-05-08 16:18 | 26.30198 | 50.38599 | 7768 ft | 284 kts | 270° |
| 2026-05-08 16:18 | 26.30144 | 50.36385 | 8413 ft | 288 kts | 269° |
| 2026-05-08 16:18 | 26.30097 | 50.34141 | 9025 ft | 292 kts | 272° |
| 2026-05-08 16:19 | 26.30395 | 50.31895 | 9643 ft | 295 kts | 287° |
| 2026-05-08 16:19 | 26.31134 | 50.29750 | 10171 ft | 301 kts | 292° |
| 2026-05-08 16:19 | 26.31951 | 50.27509 | 10301 ft | 322 kts | 291° |
| 2026-05-08 16:19 | 26.32819 | 50.25124 | 10417 ft | 342 kts | 291° |
| 2026-05-08 16:20 | 26.33731 | 50.22611 | 10653 ft | 355 kts | 291° |
| 2026-05-08 16:20 | 26.34660 | 50.20033 | 11120 ft | 361 kts | 291° |
| 2026-05-08 16:20 | 26.35597 | 50.17427 | 11656 ft | 364 kts | 290° |
| 2026-05-08 16:20 | 26.36542 | 50.14790 | 12190 ft | 368 kts | 290° |
| 2026-05-08 16:21 | 26.37495 | 50.12132 | 12704 ft | 372 kts | 290° |
| 2026-05-08 16:21 | 26.38460 | 50.09439 | 13243 ft | 375 kts | 290° |
| 2026-05-08 16:21 | 26.39431 | 50.06733 | 13781 ft | 378 kts | 289° |
| 2026-05-08 16:21 | 26.40410 | 50.04008 | 14313 ft | 379 kts | 289° |
| 2026-05-08 16:22 | 26.41391 | 50.01279 | 14869 ft | 379 kts | 289° |
| 2026-05-08 16:22 | 26.42039 | 49.99474 | 15255 ft | 379 kts | 289° |
| 2026-05-08 16:22 | 26.43349 | 49.95814 | 15992 ft | 379 kts | 289° |
| 2026-05-08 16:22 | 26.44324 | 49.93081 | 16572 ft | 380 kts | 289° |
| 2026-05-08 16:23 | 26.45302 | 49.90339 | 17127 ft | 381 kts | 289° |
| 2026-05-08 16:23 | 26.46285 | 49.87588 | 17682 ft | 382 kts | 289° |
| 2026-05-08 16:23 | 26.47272 | 49.84830 | 18217 ft | 384 kts | 289° |
| 2026-05-08 16:23 | 26.48264 | 49.82053 | 18691 ft | 386 kts | 289° |
| 2026-05-08 16:24 | 26.49259 | 49.79262 | 19151 ft | 389 kts | 289° |
| 2026-05-08 16:24 | 26.50130 | 49.76407 | 19605 ft | 389 kts | 283° |
| 2026-05-08 16:24 | 26.50865 | 49.73486 | 20085 ft | 392 kts | 283° |
| 2026-05-08 16:24 | 26.51605 | 49.70549 | 20555 ft | 394 kts | 283° |
| 2026-05-08 16:25 | 26.52350 | 49.67595 | 21005 ft | 397 kts | 282° |
| 2026-05-08 16:25 | 26.53101 | 49.64618 | 21432 ft | 400 kts | 282° |
| 2026-05-08 16:25 | 26.53602 | 49.62638 | 21711 ft | 401 kts | 282° |
| 2026-05-08 16:25 | 26.54365 | 49.59631 | 22128 ft | 404 kts | 282° |
| 2026-05-08 16:26 | 26.55379 | 49.55618 | 22656 ft | 407 kts | 282° |
| 2026-05-08 16:26 | 26.55898 | 49.53559 | 22922 ft | 409 kts | 282° |
| 2026-05-08 16:26 | 26.56920 | 49.49498 | 23445 ft | 412 kts | 282° |
| 2026-05-08 16:26 | 26.57695 | 49.46412 | 23766 ft | 414 kts | 282° |
| 2026-05-08 16:27 | 26.58222 | 49.44320 | 23981 ft | 415 kts | 282° |
| 2026-05-08 16:27 | 26.59004 | 49.41210 | 24299 ft | 417 kts | 282° |
| 2026-05-08 16:27 | 26.59786 | 49.38085 | 24616 ft | 418 kts | 281° |
| 2026-05-08 16:27 | 26.60566 | 49.34949 | 24938 ft | 420 kts | 281° |
| 2026-05-08 16:28 | 26.61349 | 49.31799 | 25253 ft | 422 kts | 281° |
| 2026-05-08 16:28 | 26.62138 | 49.28635 | 25559 ft | 423 kts | 281° |
| 2026-05-08 16:28 | 26.62930 | 49.25459 | 25857 ft | 425 kts | 280° |
| 2026-05-08 16:28 | 26.63724 | 49.22272 | 26151 ft | 427 kts | 280° |
| 2026-05-08 16:29 | 26.64520 | 49.19065 | 26457 ft | 429 kts | 280° |
| 2026-05-08 16:29 | 26.65315 | 49.15850 | 26772 ft | 430 kts | 280° |
| 2026-05-08 16:29 | 26.66114 | 49.12621 | 27058 ft | 432 kts | 280° |
| 2026-05-08 16:29 | 26.66918 | 49.09381 | 27352 ft | 433 kts | 279° |
| 2026-05-08 16:30 | 26.67726 | 49.06131 | 27657 ft | 435 kts | 279° |
| 2026-05-08 16:30 | 26.68538 | 49.02867 | 27952 ft | 436 kts | 279° |
| 2026-05-08 16:30 | 26.69351 | 48.99596 | 28251 ft | 438 kts | 279° |
| 2026-05-08 16:30 | 26.70164 | 48.96323 | 28678 ft | 436 kts | 279° |
| 2026-05-08 16:31 | 26.70973 | 48.93068 | 29145 ft | 433 kts | 278° |
| 2026-05-08 16:31 | 26.71776 | 48.89830 | 29623 ft | 431 kts | 278° |
| 2026-05-08 16:31 | 26.72573 | 48.86607 | 30045 ft | 429 kts | 278° |
| 2026-05-08 16:31 | 26.73364 | 48.83397 | 30397 ft | 428 kts | 278° |
| 2026-05-08 16:32 | 26.74151 | 48.80195 | 30755 ft | 426 kts | 277° |
| 2026-05-08 16:32 | 26.74934 | 48.77002 | 31124 ft | 425 kts | 277° |
| 2026-05-08 16:32 | 26.75710 | 48.73822 | 31491 ft | 423 kts | 277° |
| 2026-05-08 16:32 | 26.76333 | 48.70637 | 31846 ft | 414 kts | 269° |
| 2026-05-08 16:33 | 26.76482 | 48.67461 | 32206 ft | 405 kts | 261° |
| 2026-05-08 16:33 | 26.76385 | 48.64362 | 32574 ft | 403 kts | 261° |
| 2026-05-08 16:33 | 26.76299 | 48.61231 | 32970 ft | 402 kts | 261° |
| 2026-05-08 16:33 | 26.76224 | 48.58114 | 33359 ft | 400 kts | 261° |
| 2026-05-08 16:34 | 26.76150 | 48.55010 | 33747 ft | 398 kts | 261° |
| 2026-05-08 16:34 | 26.76075 | 48.51919 | 34083 ft | 397 kts | 261° |
| 2026-05-08 16:34 | 26.75997 | 48.48840 | 34399 ft | 395 kts | 261° |
| 2026-05-08 16:34 | 26.75915 | 48.45777 | 34720 ft | 393 kts | 261° |
| 2026-05-08 16:35 | 26.75831 | 48.42728 | 35038 ft | 391 kts | 261° |
| 2026-05-08 16:35 | 26.75745 | 48.39700 | 35357 ft | 388 kts | 261° |
| 2026-05-08 16:35 | 26.75659 | 48.36692 | 35666 ft | 386 kts | 261° |
| 2026-05-08 16:35 | 26.75575 | 48.33698 | 35897 ft | 385 kts | 261° |
| 2026-05-08 16:36 | 26.75402 | 48.27673 | 35960 ft | 392 kts | 261° |
| 2026-05-08 16:36 | 26.75227 | 48.21559 | 35970 ft | 394 kts | 261° |
| 2026-05-08 16:37 | 26.75055 | 48.15420 | 35967 ft | 395 kts | 261° |
| 2026-05-08 16:37 | 26.74878 | 48.09282 | 35973 ft | 395 kts | 261° |
| 2026-05-08 16:38 | 26.74695 | 48.03131 | 35977 ft | 395 kts | 261° |
| 2026-05-08 16:38 | 26.74517 | 47.96982 | 36000 ft | 395 kts | 261° |
| 2026-05-08 16:39 | 26.74336 | 47.90841 | 36001 ft | 395 kts | 261° |
| 2026-05-08 16:39 | 26.74432 | 47.84672 | 36002 ft | 399 kts | 266° |
| 2026-05-08 16:40 | 26.74750 | 47.78473 | 36034 ft | 398 kts | 266° |
| 2026-05-08 16:40 | 26.75060 | 47.72299 | 36022 ft | 397 kts | 266° |
| 2026-05-08 16:41 | 26.75367 | 47.66130 | 36020 ft | 397 kts | 266° |
| 2026-05-08 16:42 | 26.75822 | 47.56898 | 36034 ft | 396 kts | 265° |
| 2026-05-08 16:42 | 26.76129 | 47.50753 | 36032 ft | 395 kts | 265° |
| 2026-05-08 16:43 | 26.76419 | 47.44624 | 36030 ft | 394 kts | 265° |
| 2026-05-08 16:43 | 26.76714 | 47.38504 | 36028 ft | 394 kts | 266° |
| 2026-05-08 16:44 | 26.77563 | 47.32365 | 36021 ft | 401 kts | 271° |
| 2026-05-08 16:44 | 26.78515 | 47.26221 | 36043 ft | 401 kts | 271° |
| 2026-05-08 16:45 | 26.79465 | 47.20076 | 36040 ft | 401 kts | 271° |
| 2026-05-08 16:45 | 26.80406 | 47.13931 | 36013 ft | 401 kts | 270° |
| 2026-05-08 16:46 | 26.81335 | 47.07812 | 36010 ft | 402 kts | 270° |
| 2026-05-08 16:46 | 26.82283 | 47.01631 | 36012 ft | 402 kts | 270° |
| 2026-05-08 16:47 | 26.83223 | 46.95456 | 36024 ft | 403 kts | 270° |
| 2026-05-08 16:47 | 26.84166 | 46.89281 | 36027 ft | 402 kts | 270° |
| 2026-05-08 16:48 | 26.85097 | 46.83120 | 36034 ft | 401 kts | 270° |
| 2026-05-08 16:48 | 26.86023 | 46.76975 | 36034 ft | 400 kts | 270° |
| 2026-05-08 16:49 | 26.86943 | 46.70831 | 36031 ft | 400 kts | 270° |
| 2026-05-08 16:49 | 26.87863 | 46.64692 | 36029 ft | 399 kts | 270° |
| 2026-05-08 16:50 | 26.88780 | 46.58559 | 36030 ft | 399 kts | 270° |
| 2026-05-08 16:50 | 26.89692 | 46.52424 | 36040 ft | 399 kts | 270° |
| 2026-05-08 16:51 | 26.90601 | 46.46294 | 36067 ft | 399 kts | 270° |
| 2026-05-08 16:51 | 26.91505 | 46.40204 | 36032 ft | 394 kts | 269° |
| 2026-05-08 16:52 | 26.92397 | 46.34141 | 36037 ft | 395 kts | 269° |
| 2026-05-08 16:52 | 26.93300 | 46.28076 | 36039 ft | 395 kts | 269° |
| 2026-05-08 16:53 | 26.94648 | 46.18982 | 36040 ft | 394 kts | 269° |
| 2026-05-08 16:53 | 26.95538 | 46.12925 | 36052 ft | 394 kts | 269° |
| 2026-05-08 16:54 | 26.96417 | 46.06873 | 36049 ft | 393 kts | 269° |
| 2026-05-08 16:54 | 26.97292 | 46.00829 | 36071 ft | 392 kts | 269° |
| 2026-05-08 16:55 | 26.98168 | 45.94807 | 36071 ft | 391 kts | 269° |
| 2026-05-08 16:55 | 26.99045 | 45.88805 | 36070 ft | 389 kts | 269° |
| 2026-05-08 16:56 | 26.99913 | 45.82822 | 36074 ft | 388 kts | 269° |
| 2026-05-08 16:56 | 27.00770 | 45.76855 | 36079 ft | 388 kts | 269° |
| 2026-05-08 16:57 | 27.01626 | 45.70889 | 36073 ft | 387 kts | 269° |
| 2026-05-08 16:57 | 27.02488 | 45.64926 | 36081 ft | 387 kts | 269° |
| 2026-05-08 16:58 | 27.03339 | 45.58960 | 36095 ft | 387 kts | 268° |
| 2026-05-08 16:58 | 27.04178 | 45.53029 | 36090 ft | 388 kts | 268° |
| 2026-05-08 16:59 | 27.05033 | 45.47003 | 36084 ft | 389 kts | 268° |
| 2026-05-08 16:59 | 27.05838 | 45.41051 | 36088 ft | 388 kts | 267° |
| 2026-05-08 17:00 | 27.06503 | 45.35019 | 36095 ft | 387 kts | 266° |
| 2026-05-08 17:00 | 27.07131 | 45.29016 | 36096 ft | 388 kts | 266° |
| 2026-05-08 17:01 | 27.07785 | 45.23000 | 36118 ft | 389 kts | 266° |
| 2026-05-08 17:01 | 27.08456 | 45.17012 | 36115 ft | 389 kts | 266° |
| 2026-05-08 17:02 | 27.09129 | 45.10978 | 36113 ft | 390 kts | 266° |
| 2026-05-08 17:02 | 27.09795 | 45.04936 | 36108 ft | 390 kts | 266° |
| 2026-05-08 17:03 | 27.10463 | 44.98888 | 36098 ft | 391 kts | 267° |
| 2026-05-08 17:03 | 27.11121 | 44.92817 | 36091 ft | 392 kts | 267° |
| 2026-05-08 17:04 | 27.11776 | 44.86726 | 36089 ft | 394 kts | 267° |
| 2026-05-08 17:04 | 27.12442 | 44.80614 | 36090 ft | 395 kts | 267° |
| 2026-05-08 17:05 | 27.13105 | 44.74490 | 36083 ft | 395 kts | 267° |
| 2026-05-08 17:05 | 27.13760 | 44.68363 | 36073 ft | 396 kts | 267° |
| 2026-05-08 17:06 | 27.14415 | 44.62229 | 36088 ft | 396 kts | 267° |
| 2026-05-08 17:06 | 27.15074 | 44.56089 | 36088 ft | 396 kts | 266° |
| 2026-05-08 17:07 | 27.15726 | 44.49955 | 36087 ft | 395 kts | 266° |
| 2026-05-08 17:07 | 27.16372 | 44.43830 | 36086 ft | 395 kts | 266° |
| 2026-05-08 17:08 | 27.17016 | 44.37704 | 36078 ft | 395 kts | 267° |
| 2026-05-08 17:08 | 27.17656 | 44.31571 | 36076 ft | 396 kts | 267° |
| 2026-05-08 17:09 | 27.18294 | 44.25416 | 36076 ft | 396 kts | 267° |
| 2026-05-08 17:09 | 27.18819 | 44.20326 | 36084 ft | 397 kts | 267° |
| 2026-05-08 17:10 | 27.19454 | 44.14156 | 36072 ft | 398 kts | 267° |
| 2026-05-08 17:10 | 27.20082 | 44.07969 | 36067 ft | 399 kts | 267° |
| 2026-05-08 17:11 | 27.20710 | 44.01770 | 36091 ft | 400 kts | 267° |
| 2026-05-08 17:11 | 27.21343 | 43.95564 | 36083 ft | 400 kts | 267° |
| 2026-05-08 17:12 | 27.21968 | 43.89351 | 36079 ft | 400 kts | 267° |
| 2026-05-08 17:12 | 27.22593 | 43.83139 | 36066 ft | 400 kts | 267° |
| 2026-05-08 17:13 | 27.23218 | 43.76927 | 36086 ft | 400 kts | 267° |
| 2026-05-08 17:13 | 27.23835 | 43.70724 | 36078 ft | 399 kts | 267° |
| 2026-05-08 17:14 | 27.24445 | 43.64527 | 36083 ft | 399 kts | 267° |
| 2026-05-08 17:14 | 27.25059 | 43.58326 | 36087 ft | 400 kts | 266° |
| 2026-05-08 17:15 | 27.25673 | 43.52156 | 36080 ft | 400 kts | 266° |
| 2026-05-08 17:15 | 27.26283 | 43.45937 | 36075 ft | 401 kts | 266° |
| 2026-05-08 17:16 | 27.26889 | 43.39708 | 36085 ft | 401 kts | 267° |
| 2026-05-08 17:16 | 27.27494 | 43.33470 | 36079 ft | 402 kts | 267° |
| 2026-05-08 17:17 | 27.28099 | 43.27217 | 36075 ft | 402 kts | 267° |
| 2026-05-08 17:17 | 27.28699 | 43.20957 | 36092 ft | 403 kts | 266° |
| 2026-05-08 17:18 | 27.29300 | 43.14690 | 36080 ft | 404 kts | 266° |
| 2026-05-08 17:18 | 27.29900 | 43.08411 | 36066 ft | 404 kts | 266° |
| 2026-05-08 17:19 | 27.30495 | 43.02131 | 36073 ft | 404 kts | 267° |
| 2026-05-08 17:19 | 27.31090 | 42.95840 | 36078 ft | 405 kts | 267° |
| 2026-05-08 17:20 | 27.31681 | 42.89541 | 36075 ft | 405 kts | 267° |
| 2026-05-08 17:20 | 27.32268 | 42.83239 | 36071 ft | 405 kts | 267° |
| 2026-05-08 17:21 | 27.32856 | 42.76932 | 36069 ft | 405 kts | 267° |
| 2026-05-08 17:21 | 27.33442 | 42.70624 | 36070 ft | 406 kts | 267° |
| 2026-05-08 17:22 | 27.34020 | 42.64350 | 36075 ft | 406 kts | 267° |
| 2026-05-08 17:22 | 27.34604 | 42.57989 | 36091 ft | 406 kts | 268° |
| 2026-05-08 17:23 | 27.35175 | 42.51662 | 36084 ft | 407 kts | 268° |
| 2026-05-08 17:23 | 27.35748 | 42.45326 | 36084 ft | 407 kts | 268° |
| 2026-05-08 17:24 | 27.36319 | 42.38992 | 36095 ft | 408 kts | 268° |
| 2026-05-08 17:24 | 27.36892 | 42.32638 | 36074 ft | 409 kts | 268° |
| 2026-05-08 17:25 | 27.37460 | 42.26269 | 36051 ft | 409 kts | 268° |
| 2026-05-08 17:25 | 27.38024 | 42.19902 | 36064 ft | 409 kts | 268° |
| 2026-05-08 17:26 | 27.38589 | 42.13533 | 36084 ft | 410 kts | 269° |
| 2026-05-08 17:26 | 27.39154 | 42.07146 | 36073 ft | 411 kts | 269° |
| 2026-05-08 17:27 | 27.39639 | 42.01656 | 36067 ft | 411 kts | 269° |
| 2026-05-08 17:27 | 27.40197 | 41.95247 | 36067 ft | 412 kts | 269° |
| 2026-05-08 17:28 | 27.40717 | 41.89165 | 36046 ft | 415 kts | 269° |
| 2026-05-08 17:28 | 27.41270 | 41.82692 | 36046 ft | 416 kts | 270° |
| 2026-05-08 17:29 | 27.41831 | 41.76194 | 36059 ft | 418 kts | 270° |
| 2026-05-08 17:29 | 27.42608 | 41.69732 | 36046 ft | 425 kts | 280° |
| 2026-05-08 17:30 | 27.45116 | 41.63601 | 36046 ft | 440 kts | 296° |
| 2026-05-08 17:30 | 27.48379 | 41.57768 | 36047 ft | 441 kts | 296° |
| 2026-05-08 17:31 | 27.51631 | 41.51908 | 36067 ft | 441 kts | 297° |
| 2026-05-08 17:31 | 27.54878 | 41.46044 | 36074 ft | 441 kts | 297° |
| 2026-05-08 17:32 | 27.58132 | 41.40175 | 36068 ft | 441 kts | 297° |
| 2026-05-08 17:32 | 27.61383 | 41.34303 | 36079 ft | 441 kts | 297° |
| 2026-05-08 17:33 | 27.64626 | 41.28438 | 36072 ft | 440 kts | 298° |
| 2026-05-08 17:33 | 27.67860 | 41.22583 | 36064 ft | 439 kts | 298° |
| 2026-05-08 17:34 | 27.71083 | 41.16735 | 36058 ft | 439 kts | 298° |
| 2026-05-08 17:34 | 27.74304 | 41.10891 | 36076 ft | 438 kts | 299° |
| 2026-05-08 17:35 | 27.77464 | 41.05136 | 36067 ft | 436 kts | 299° |
| 2026-05-08 17:35 | 27.80668 | 40.99312 | 36068 ft | 434 kts | 299° |
| 2026-05-08 17:36 | 27.83842 | 40.93524 | 36065 ft | 433 kts | 298° |
| 2026-05-08 17:36 | 27.87003 | 40.87742 | 36071 ft | 432 kts | 300° |
| 2026-05-08 17:37 | 27.90148 | 40.81979 | 36068 ft | 430 kts | 300° |
| 2026-05-08 17:37 | 27.93280 | 40.76237 | 36082 ft | 428 kts | 300° |
| 2026-05-08 17:38 | 27.96406 | 40.70511 | 36077 ft | 427 kts | 300° |
| 2026-05-08 17:38 | 27.99524 | 40.64792 | 36073 ft | 427 kts | 300° |
| 2026-05-08 17:39 | 28.02635 | 40.59069 | 36069 ft | 427 kts | 300° |
| 2026-05-08 17:39 | 28.05744 | 40.53348 | 36064 ft | 427 kts | 300° |
| 2026-05-08 17:40 | 28.08850 | 40.47624 | 36074 ft | 427 kts | 300° |
| 2026-05-08 17:40 | 28.11949 | 40.41907 | 36079 ft | 425 kts | 301° |
| 2026-05-08 17:41 | 28.15033 | 40.36208 | 36077 ft | 424 kts | 301° |
| 2026-05-08 17:41 | 28.18111 | 40.30520 | 36075 ft | 423 kts | 301° |
| 2026-05-08 17:42 | 28.21180 | 40.24841 | 36069 ft | 422 kts | 302° |
| 2026-05-08 17:42 | 28.24237 | 40.19165 | 36076 ft | 421 kts | 302° |
| 2026-05-08 17:43 | 28.27277 | 40.13502 | 36076 ft | 420 kts | 302° |
| 2026-05-08 17:43 | 28.30361 | 40.07883 | 36069 ft | 419 kts | 307° |
| 2026-05-08 17:44 | 28.34009 | 40.02746 | 36069 ft | 418 kts | 310° |
| 2026-05-08 17:44 | 28.37660 | 39.97624 | 36074 ft | 417 kts | 310° |
| 2026-05-08 17:45 | 28.41300 | 39.92497 | 36075 ft | 417 kts | 310° |
| 2026-05-08 17:45 | 28.44931 | 39.87367 | 36076 ft | 416 kts | 310° |
| 2026-05-08 17:46 | 28.48561 | 39.82243 | 36072 ft | 416 kts | 310° |
| 2026-05-08 17:46 | 28.52194 | 39.77125 | 36082 ft | 415 kts | 310° |
| 2026-05-08 17:47 | 28.55810 | 39.72014 | 36075 ft | 414 kts | 310° |
| 2026-05-08 17:47 | 28.58803 | 39.67770 | 36073 ft | 414 kts | 310° |
| 2026-05-08 17:48 | 28.63009 | 39.61803 | 36065 ft | 413 kts | 310° |
| 2026-05-08 17:48 | 28.66583 | 39.56730 | 36055 ft | 413 kts | 310° |
| 2026-05-08 17:49 | 28.70172 | 39.51632 | 36071 ft | 412 kts | 310° |
| 2026-05-08 17:49 | 28.73751 | 39.46545 | 36066 ft | 411 kts | 310° |
| 2026-05-08 17:50 | 28.77324 | 39.41460 | 36065 ft | 411 kts | 310° |
| 2026-05-08 17:50 | 28.80887 | 39.36378 | 36065 ft | 410 kts | 310° |
| 2026-05-08 17:51 | 28.84442 | 39.31298 | 36066 ft | 410 kts | 310° |
| 2026-05-08 17:51 | 28.87989 | 39.26219 | 36072 ft | 409 kts | 310° |
| 2026-05-08 17:52 | 28.91535 | 39.21144 | 36072 ft | 409 kts | 310° |
| 2026-05-08 17:53 | 28.96845 | 39.13541 | 36083 ft | 408 kts | 310° |
| 2026-05-08 17:53 | 29.00369 | 39.08474 | 36070 ft | 407 kts | 310° |
| 2026-05-08 17:54 | 29.03286 | 39.04274 | 36070 ft | 405 kts | 310° |
| 2026-05-08 17:54 | 29.06788 | 38.99234 | 36072 ft | 404 kts | 310° |
| 2026-05-08 17:55 | 29.09879 | 38.93866 | 36071 ft | 409 kts | 296° |
| 2026-05-08 17:55 | 29.10746 | 38.90756 | 36071 ft | 414 kts | 285° |
| 2026-05-08 17:55 | 29.11061 | 38.87464 | 36063 ft | 421 kts | 276° |
| 2026-05-08 17:56 | 29.11023 | 38.80761 | 36062 ft | 421 kts | 275° |
| 2026-05-08 17:56 | 29.10992 | 38.74064 | 36069 ft | 421 kts | 276° |
| 2026-05-08 17:57 | 29.10965 | 38.67365 | 36055 ft | 421 kts | 275° |
| 2026-05-08 17:57 | 29.10929 | 38.60671 | 36050 ft | 421 kts | 276° |
| 2026-05-08 17:58 | 29.10890 | 38.53983 | 36059 ft | 420 kts | 276° |
| 2026-05-08 17:58 | 29.10844 | 38.47302 | 36062 ft | 420 kts | 276° |
| 2026-05-08 17:59 | 29.10787 | 38.40616 | 36060 ft | 420 kts | 276° |
| 2026-05-08 17:59 | 29.10738 | 38.33947 | 36058 ft | 419 kts | 276° |
| 2026-05-08 18:00 | 29.10690 | 38.27278 | 36054 ft | 419 kts | 276° |
| 2026-05-08 18:00 | 29.10597 | 38.17285 | 36050 ft | 419 kts | 276° |
| 2026-05-08 18:01 | 29.10534 | 38.10676 | 36052 ft | 419 kts | 276° |
| 2026-05-08 18:01 | 29.10473 | 38.04021 | 36050 ft | 418 kts | 276° |
| 2026-05-08 18:02 | 29.10406 | 37.97366 | 36035 ft | 419 kts | 276° |
| 2026-05-08 18:02 | 29.10333 | 37.90714 | 36036 ft | 418 kts | 276° |
| 2026-05-08 18:03 | 29.10257 | 37.84072 | 36048 ft | 418 kts | 276° |
| 2026-05-08 18:03 | 29.10184 | 37.77753 | 36045 ft | 417 kts | 276° |
| 2026-05-08 18:04 | 29.10097 | 37.71116 | 36045 ft | 417 kts | 276° |
| 2026-05-08 18:04 | 29.10007 | 37.64489 | 36051 ft | 417 kts | 276° |
| 2026-05-08 18:05 | 29.09925 | 37.57870 | 36055 ft | 416 kts | 276° |
| 2026-05-08 18:05 | 29.09839 | 37.51255 | 36062 ft | 416 kts | 276° |
| 2026-05-08 18:06 | 29.09772 | 37.44655 | 36047 ft | 415 kts | 276° |
| 2026-05-08 18:06 | 29.09730 | 37.38068 | 36053 ft | 414 kts | 276° |
| 2026-05-08 18:07 | 29.09686 | 37.31498 | 36038 ft | 413 kts | 276° |
| 2026-05-08 18:07 | 29.09635 | 37.24936 | 36041 ft | 413 kts | 276° |
| 2026-05-08 18:08 | 29.09598 | 37.18397 | 36052 ft | 410 kts | 276° |
| 2026-05-08 18:08 | 29.09530 | 37.11888 | 36025 ft | 409 kts | 276° |
| 2026-05-08 18:09 | 29.09446 | 37.05378 | 36022 ft | 410 kts | 276° |
| 2026-05-08 18:09 | 29.09372 | 36.98849 | 36018 ft | 411 kts | 276° |
| 2026-05-08 18:10 | 29.09311 | 36.92317 | 36017 ft | 411 kts | 276° |
| 2026-05-08 18:10 | 29.09239 | 36.85776 | 36020 ft | 412 kts | 276° |
| 2026-05-08 18:11 | 29.09159 | 36.79229 | 36015 ft | 412 kts | 276° |
| 2026-05-08 18:11 | 29.09079 | 36.72683 | 35991 ft | 412 kts | 276° |
| 2026-05-08 18:12 | 29.08998 | 36.66179 | 35997 ft | 412 kts | 276° |
| 2026-05-08 18:12 | 29.08912 | 36.59623 | 35984 ft | 413 kts | 276° |
| 2026-05-08 18:13 | 29.08820 | 36.53356 | 35980 ft | 413 kts | 276° |
| 2026-05-08 18:13 | 29.08727 | 36.46789 | 35980 ft | 413 kts | 275° |
| 2026-05-08 18:14 | 29.08566 | 36.40218 | 35981 ft | 414 kts | 275° |
| 2026-05-08 18:14 | 29.08367 | 36.33639 | 35983 ft | 414 kts | 275° |
| 2026-05-08 18:15 | 29.08174 | 36.27063 | 35986 ft | 414 kts | 275° |
| 2026-05-08 18:15 | 29.07989 | 36.20487 | 35983 ft | 414 kts | 275° |
| 2026-05-08 18:16 | 29.07801 | 36.13917 | 35984 ft | 414 kts | 274° |
| 2026-05-08 18:16 | 29.07613 | 36.07343 | 35987 ft | 414 kts | 274° |
| 2026-05-08 18:17 | 29.07420 | 36.00773 | 35988 ft | 414 kts | 274° |
| 2026-05-08 18:17 | 29.07221 | 35.94203 | 35996 ft | 414 kts | 274° |
| 2026-05-08 18:18 | 29.07026 | 35.87630 | 35989 ft | 414 kts | 274° |
| 2026-05-08 18:18 | 29.06826 | 35.81095 | 36000 ft | 414 kts | 274° |
| 2026-05-08 18:19 | 29.06621 | 35.74513 | 36011 ft | 414 kts | 274° |
| 2026-05-08 18:19 | 29.06409 | 35.67929 | 36014 ft | 414 kts | 274° |
| 2026-05-08 18:20 | 29.06191 | 35.61348 | 36023 ft | 414 kts | 274° |
| 2026-05-08 18:20 | 29.05969 | 35.54767 | 36027 ft | 414 kts | 274° |
| 2026-05-08 18:21 | 29.05751 | 35.48184 | 36024 ft | 414 kts | 274° |
| 2026-05-08 18:21 | 29.05530 | 35.41604 | 36027 ft | 414 kts | 274° |
| 2026-05-08 18:22 | 29.05308 | 35.35024 | 36034 ft | 414 kts | 274° |
| 2026-05-08 18:22 | 29.05080 | 35.28442 | 36032 ft | 414 kts | 274° |
| 2026-05-08 18:23 | 29.04842 | 35.21858 | 35991 ft | 415 kts | 273° |
| 2026-05-08 18:23 | 29.04608 | 35.15273 | 35997 ft | 415 kts | 273° |
| 2026-05-08 18:24 | 29.04370 | 35.08678 | 35996 ft | 416 kts | 273° |
| 2026-05-08 18:24 | 29.04126 | 35.02073 | 35988 ft | 416 kts | 273° |
| 2026-05-08 18:25 | 29.03872 | 34.95464 | 35985 ft | 416 kts | 273° |
| 2026-05-08 18:25 | 29.03616 | 34.88852 | 35977 ft | 417 kts | 273° |
| 2026-05-08 18:26 | 29.03375 | 34.82235 | 35982 ft | 416 kts | 274° |
| 2026-05-08 18:26 | 29.03267 | 34.75628 | 35984 ft | 416 kts | 275° |
| 2026-05-08 18:27 | 29.03230 | 34.70137 | 35987 ft | 415 kts | 276° |
| 2026-05-08 18:27 | 29.03669 | 34.65847 | 35989 ft | 408 kts | 288° |
| 2026-05-08 18:27 | 29.04497 | 34.62770 | 36011 ft | 405 kts | 292° |
| 2026-05-08 18:28 | 29.06310 | 34.56673 | 36015 ft | 405 kts | 292° |
| 2026-05-08 18:28 | 29.08100 | 34.50557 | 36035 ft | 406 kts | 292° |
| 2026-05-08 18:29 | 29.09881 | 34.44436 | 36025 ft | 406 kts | 291° |
| 2026-05-08 18:29 | 29.11671 | 34.38305 | 36049 ft | 406 kts | 291° |
| 2026-05-08 18:30 | 29.13461 | 34.32168 | 36060 ft | 407 kts | 291° |
| 2026-05-08 18:30 | 29.15253 | 34.26027 | 36079 ft | 407 kts | 291° |
| 2026-05-08 18:31 | 29.17044 | 34.19877 | 36089 ft | 407 kts | 291° |
| 2026-05-08 18:31 | 29.18828 | 34.13721 | 36091 ft | 408 kts | 291° |
| 2026-05-08 18:32 | 29.20608 | 34.07554 | 36103 ft | 408 kts | 291° |
| 2026-05-08 18:32 | 29.22395 | 34.01386 | 36105 ft | 408 kts | 291° |
| 2026-05-08 18:33 | 29.23283 | 33.98311 | 35788 ft | 405 kts | 291° |
| 2026-05-08 18:33 | 29.24163 | 33.95255 | 35541 ft | 405 kts | 291° |
| 2026-05-08 18:33 | 29.25048 | 33.92184 | 35301 ft | 407 kts | 291° |
| 2026-05-08 18:33 | 29.25939 | 33.89100 | 35061 ft | 408 kts | 291° |
| 2026-05-08 18:34 | 29.26831 | 33.86011 | 34818 ft | 409 kts | 291° |
| 2026-05-08 18:34 | 29.27723 | 33.82914 | 34584 ft | 410 kts | 291° |
| 2026-05-08 18:34 | 29.28614 | 33.79811 | 34341 ft | 410 kts | 291° |
| 2026-05-08 18:34 | 29.29504 | 33.76706 | 34110 ft | 411 kts | 291° |
| 2026-05-08 18:35 | 29.30396 | 33.73595 | 33851 ft | 411 kts | 291° |
| 2026-05-08 18:35 | 29.31288 | 33.70479 | 33585 ft | 412 kts | 291° |
| 2026-05-08 18:35 | 29.32183 | 33.67354 | 33324 ft | 413 kts | 291° |
| 2026-05-08 18:35 | 29.33079 | 33.64220 | 33062 ft | 414 kts | 290° |
| 2026-05-08 18:36 | 29.33974 | 33.61079 | 32806 ft | 415 kts | 290° |
| 2026-05-08 18:36 | 29.34903 | 33.57939 | 32546 ft | 416 kts | 292° |
| 2026-05-08 18:36 | 29.35925 | 33.54837 | 32293 ft | 416 kts | 294° |
| 2026-05-08 18:36 | 29.37014 | 33.51755 | 32042 ft | 417 kts | 295° |
| 2026-05-08 18:37 | 29.38132 | 33.48683 | 31793 ft | 418 kts | 295° |
| 2026-05-08 18:37 | 29.39254 | 33.45603 | 31547 ft | 419 kts | 295° |
| 2026-05-08 18:37 | 29.40368 | 33.42507 | 31306 ft | 420 kts | 294° |
| 2026-05-08 18:37 | 29.41467 | 33.39399 | 31061 ft | 421 kts | 294° |
| 2026-05-08 18:38 | 29.42538 | 33.36329 | 30824 ft | 421 kts | 294° |
| 2026-05-08 18:38 | 29.43615 | 33.33212 | 30584 ft | 420 kts | 294° |
| 2026-05-08 18:38 | 29.44685 | 33.30100 | 30354 ft | 418 kts | 294° |
| 2026-05-08 18:38 | 29.45755 | 33.27001 | 30115 ft | 417 kts | 294° |
| 2026-05-08 18:39 | 29.46823 | 33.23909 | 29838 ft | 416 kts | 294° |
| 2026-05-08 18:39 | 29.47888 | 33.20830 | 29564 ft | 415 kts | 294° |
| 2026-05-08 18:39 | 29.48950 | 33.17757 | 29296 ft | 414 kts | 294° |
| 2026-05-08 18:39 | 29.50010 | 33.14689 | 29012 ft | 413 kts | 294° |
| 2026-05-08 18:40 | 29.51068 | 33.11628 | 28753 ft | 412 kts | 294° |
| 2026-05-08 18:40 | 29.52124 | 33.08576 | 28490 ft | 411 kts | 293° |
| 2026-05-08 18:40 | 29.53175 | 33.05533 | 28231 ft | 410 kts | 293° |
| 2026-05-08 18:40 | 29.54221 | 33.02497 | 27970 ft | 408 kts | 293° |
| 2026-05-08 18:41 | 29.55263 | 32.99466 | 27713 ft | 407 kts | 293° |
| 2026-05-08 18:41 | 29.56298 | 32.96439 | 27460 ft | 407 kts | 291° |
| 2026-05-08 18:41 | 29.57057 | 32.93312 | 27204 ft | 407 kts | 285° |
| 2026-05-08 18:41 | 29.57685 | 32.90143 | 26950 ft | 406 kts | 285° |
| 2026-05-08 18:42 | 29.58306 | 32.86982 | 26707 ft | 406 kts | 285° |
| 2026-05-08 18:42 | 29.58728 | 32.84846 | 26486 ft | 405 kts | 285° |
| 2026-05-08 18:42 | 29.59352 | 32.81696 | 26066 ft | 403 kts | 285° |
| 2026-05-08 18:42 | 29.59974 | 32.78580 | 25602 ft | 401 kts | 285° |
| 2026-05-08 18:43 | 29.60599 | 32.75463 | 25162 ft | 400 kts | 285° |
| 2026-05-08 18:43 | 29.61226 | 32.72360 | 24727 ft | 398 kts | 285° |
| 2026-05-08 18:43 | 29.61855 | 32.69268 | 24296 ft | 396 kts | 285° |
| 2026-05-08 18:43 | 29.62476 | 32.66231 | 23876 ft | 395 kts | 285° |
| 2026-05-08 18:44 | 29.63098 | 32.63204 | 23427 ft | 393 kts | 285° |
| 2026-05-08 18:44 | 29.63729 | 32.60150 | 22917 ft | 392 kts | 285° |
| 2026-05-08 18:44 | 29.64357 | 32.57108 | 22437 ft | 390 kts | 285° |
| 2026-05-08 18:44 | 29.64985 | 32.54080 | 21955 ft | 388 kts | 285° |
| 2026-05-08 18:45 | 29.65595 | 32.51153 | 21494 ft | 387 kts | 285° |
| 2026-05-08 18:45 | 29.66216 | 32.48185 | 21038 ft | 385 kts | 285° |
| 2026-05-08 18:45 | 29.66841 | 32.45203 | 20574 ft | 383 kts | 285° |
| 2026-05-08 18:45 | 29.67464 | 32.42241 | 20113 ft | 381 kts | 285° |
| 2026-05-08 18:46 | 29.68085 | 32.39283 | 19569 ft | 381 kts | 285° |
| 2026-05-08 18:46 | 29.68709 | 32.36321 | 19006 ft | 381 kts | 285° |
| 2026-05-08 18:46 | 29.69335 | 32.33359 | 18447 ft | 382 kts | 285° |
| 2026-05-08 18:46 | 29.69959 | 32.30392 | 17827 ft | 381 kts | 285° |
| 2026-05-08 18:47 | 29.70581 | 32.27434 | 17228 ft | 380 kts | 285° |
| 2026-05-08 18:47 | 29.71203 | 32.24484 | 16604 ft | 377 kts | 285° |
| 2026-05-08 18:47 | 29.71806 | 32.21605 | 15963 ft | 364 kts | 285° |
| 2026-05-08 18:47 | 29.72389 | 32.18817 | 15342 ft | 359 kts | 285° |
| 2026-05-08 18:48 | 29.72954 | 32.16085 | 14743 ft | 356 kts | 285° |
| 2026-05-08 18:48 | 29.73524 | 32.13328 | 14141 ft | 353 kts | 285° |
| 2026-05-08 18:48 | 29.74095 | 32.10591 | 13496 ft | 351 kts | 285° |
| 2026-05-08 18:48 | 29.74657 | 32.07862 | 12848 ft | 351 kts | 285° |
| 2026-05-08 18:49 | 29.75220 | 32.05120 | 12197 ft | 353 kts | 285° |
| 2026-05-08 18:49 | 29.75769 | 32.02367 | 11566 ft | 353 kts | 285° |
| 2026-05-08 18:49 | 29.76310 | 31.99620 | 10930 ft | 348 kts | 285° |
| 2026-05-08 18:49 | 29.76825 | 31.96959 | 10352 ft | 334 kts | 285° |
| 2026-05-08 18:50 | 29.77309 | 31.94435 | 10144 ft | 311 kts | 285° |
| 2026-05-08 18:50 | 29.77747 | 31.92085 | 10006 ft | 292 kts | 285° |
| 2026-05-08 18:50 | 29.78157 | 31.89835 | 9870 ft | 288 kts | 284° |
| 2026-05-08 18:50 | 29.78578 | 31.87580 | 9711 ft | 288 kts | 285° |
| 2026-05-08 18:51 | 29.78997 | 31.85326 | 9441 ft | 290 kts | 285° |
| 2026-05-08 18:51 | 29.79421 | 31.83031 | 8985 ft | 292 kts | 284° |
| 2026-05-08 18:51 | 29.79850 | 31.80750 | 8612 ft | 291 kts | 285° |
| 2026-05-08 18:51 | 29.80278 | 31.78492 | 8237 ft | 286 kts | 285° |
| 2026-05-08 18:52 | 29.80681 | 31.76274 | 7873 ft | 281 kts | 284° |
| 2026-05-08 18:52 | 29.81065 | 31.74080 | 7517 ft | 278 kts | 284° |
| 2026-05-08 18:52 | 29.81444 | 31.71904 | 7162 ft | 278 kts | 286° |
| 2026-05-08 18:52 | 29.81836 | 31.69718 | 6810 ft | 279 kts | 285° |
| 2026-05-08 18:53 | 29.82205 | 31.67518 | 6459 ft | 280 kts | 285° |
| 2026-05-08 18:53 | 29.82568 | 31.65318 | 6129 ft | 278 kts | 284° |
| 2026-05-08 18:53 | 29.82924 | 31.63158 | 6080 ft | 273 kts | 285° |
| 2026-05-08 18:53 | 29.83281 | 31.61007 | 6088 ft | 275 kts | 284° |
| 2026-05-08 18:54 | 29.83648 | 31.58848 | 6083 ft | 274 kts | 285° |
| 2026-05-08 18:54 | 29.83995 | 31.56686 | 6088 ft | 275 kts | 284° |
| 2026-05-08 18:54 | 29.84367 | 31.54519 | 6090 ft | 276 kts | 284° |
| 2026-05-08 18:54 | 29.84743 | 31.52353 | 6088 ft | 275 kts | 285° |
| 2026-05-08 18:55 | 29.85488 | 31.48044 | 6100 ft | 275 kts | 284° |
| 2026-05-08 18:55 | 29.85853 | 31.45881 | 6098 ft | 275 kts | 285° |
| 2026-05-08 18:55 | 29.86223 | 31.43725 | 6097 ft | 274 kts | 285° |
| 2026-05-08 18:56 | 29.86589 | 31.41568 | 6095 ft | 275 kts | 285° |
| 2026-05-08 18:56 | 29.86944 | 31.39408 | 6096 ft | 275 kts | 285° |
| 2026-05-08 18:56 | 29.87234 | 31.37231 | 6094 ft | 278 kts | 274° |
| 2026-05-08 18:56 | 29.86901 | 31.35020 | 6082 ft | 283 kts | 256° |
| 2026-05-08 18:57 | 29.86032 | 31.32971 | 5764 ft | 287 kts | 242° |
| 2026-05-08 18:57 | 29.85323 | 31.31690 | 5544 ft | 285 kts | 240° |
| 2026-05-08 18:57 | 29.83914 | 31.29242 | 5315 ft | 262 kts | 240° |
| 2026-05-08 18:57 | 29.82976 | 31.27640 | 5093 ft | 249 kts | 240° |
| 2026-05-08 18:58 | 29.82066 | 31.26098 | 4465 ft | 257 kts | 240° |
| 2026-05-08 18:58 | 29.81054 | 31.24381 | 3786 ft | 262 kts | 240° |
| 2026-05-08 18:58 | 29.80024 | 31.22619 | 3125 ft | 268 kts | 240° |
| 2026-05-08 18:58 | 29.79231 | 31.20721 | 2632 ft | 259 kts | 262° |
| 2026-05-08 18:59 | 29.79123 | 31.18762 | 2500 ft | 229 kts | 285° |
| 2026-05-08 18:59 | 29.79564 | 31.17134 | 2532 ft | 200 kts | 306° |
| 2026-05-08 18:59 | 29.80317 | 31.15930 | 2507 ft | 173 kts | 323° |
| 2026-05-08 18:59 | 29.81171 | 31.15160 | 2517 ft | 143 kts | 338° |
| 2026-05-08 19:00 | 29.82100 | 31.14692 | 2520 ft | 151 kts | 349° |
| 2026-05-08 19:00 | 29.83141 | 31.14481 | 2518 ft | 152 kts | 1° |
| 2026-05-08 19:00 | 29.84192 | 31.14562 | 2517 ft | 152 kts | 13° |
| 2026-05-08 19:00 | 29.85191 | 31.14934 | 2519 ft | 151 kts | 25° |
| 2026-05-08 19:01 | 29.86099 | 31.15547 | 2520 ft | 152 kts | 31° |
| 2026-05-08 19:01 | 29.87001 | 31.16195 | 2518 ft | 153 kts | 31° |
| 2026-05-08 19:01 | 29.87905 | 31.16842 | 2515 ft | 153 kts | 31° |
| 2026-05-08 19:01 | 29.88803 | 31.17485 | 2519 ft | 151 kts | 31° |
| 2026-05-08 19:02 | 29.89685 | 31.18116 | 2520 ft | 151 kts | 31° |
| 2026-05-08 19:02 | 29.90571 | 31.18751 | 2522 ft | 151 kts | 31° |
| 2026-05-08 19:02 | 29.91466 | 31.19393 | 2521 ft | 153 kts | 31° |
| 2026-05-08 19:02 | 29.92374 | 31.20044 | 2521 ft | 154 kts | 31° |
| 2026-05-08 19:03 | 29.93287 | 31.20699 | 2524 ft | 155 kts | 31° |
| 2026-05-08 19:03 | 29.94201 | 31.21353 | 2516 ft | 155 kts | 32° |
| 2026-05-08 19:03 | 29.95108 | 31.22004 | 2520 ft | 153 kts | 31° |
| 2026-05-08 19:03 | 29.96013 | 31.22652 | 2525 ft | 153 kts | 32° |
| 2026-05-08 19:04 | 29.96917 | 31.23300 | 2526 ft | 154 kts | 31° |
| 2026-05-08 19:04 | 29.97788 | 31.23965 | 2516 ft | 143 kts | 39° |
| 2026-05-08 19:04 | 29.98490 | 31.24731 | 2534 ft | 136 kts | 43° |
| 2026-05-08 19:04 | 29.99134 | 31.25509 | 2532 ft | 133 kts | 44° |
| 2026-05-08 19:05 | 29.99754 | 31.26294 | 2534 ft | 131 kts | 46° |
| 2026-05-08 19:05 | 30.00363 | 31.27082 | 2532 ft | 132 kts | 46° |
| 2026-05-08 19:05 | 30.00963 | 31.27868 | 2535 ft | 131 kts | 46° |
| 2026-05-08 19:05 | 30.01564 | 31.28661 | 2535 ft | 131 kts | 46° |
| 2026-05-08 19:06 | 30.02148 | 31.29433 | 2531 ft | 132 kts | 47° |
| 2026-05-08 19:06 | 30.02751 | 31.30232 | 2453 ft | 132 kts | 46° |
| 2026-05-08 19:06 | 30.03353 | 31.31030 | 2320 ft | 133 kts | 47° |
| 2026-05-08 19:06 | 30.03947 | 31.31818 | 2167 ft | 131 kts | 47° |
| 2026-05-08 19:07 | 30.04549 | 31.32618 | 2000 ft | 130 kts | 47° |
| 2026-05-08 19:07 | 30.05133 | 31.33394 | 1839 ft | 130 kts | 48° |
| 2026-05-08 19:07 | 30.05725 | 31.34181 | 1669 ft | 130 kts | 48° |
| 2026-05-08 19:07 | 30.06315 | 31.34964 | 1496 ft | 129 kts | 47° |
| 2026-05-08 19:08 | 30.06906 | 31.35750 | 1323 ft | 130 kts | 48° |
| 2026-05-08 19:08 | 30.07497 | 31.36535 | 1155 ft | 129 kts | 47° |
| 2026-05-08 19:08 | 30.08084 | 31.37316 | 983 ft | 128 kts | 45° |
| 2026-05-08 19:08 | 30.08667 | 31.38090 | 822 ft | 128 kts | 46° |
| 2026-05-08 19:09 | 30.09255 | 31.38872 | 662 ft | 129 kts | 46° |
| 2026-05-08 19:09 | 30.09840 | 31.39651 | 481 ft | 128 kts | 46° |
| 2026-05-08 19:09 | 30.10400 | 31.40410 | 393 ft | 112 kts | 44° |
| 2026-05-08 19:09 | 30.10751 | 31.40873 | 387 ft | 25 kts | 49° |
| 2026-05-08 19:10 | 30.10861 | 31.41018 | 388 ft | 23 kts | 49° |
| 2026-05-08 19:10 | 30.10961 | 31.41150 | 389 ft | 20 kts | 49° |
| 2026-05-08 19:10 | 30.11043 | 31.41260 | 389 ft | 18 kts | 49° |
| 2026-05-08 19:10 | 30.11129 | 31.41375 | 388 ft | 20 kts | 49° |
| 2026-05-08 19:11 | 30.11210 | 31.41478 | 388 ft | 11 kts | 43° |
| 2026-05-08 19:11 | 30.11283 | 31.41535 | 388 ft | 14 kts | 31° |
| 2026-05-08 19:11 | 30.11377 | 31.41583 | 388 ft | 16 kts | 19° |
| 2026-05-08 19:11 | 30.11479 | 31.41624 | 388 ft | 15 kts | 17° |
| 2026-05-08 19:12 | 30.11533 | 31.41619 | 389 ft | 0 kts | 345° |
| 2026-05-08 19:12 | 30.11535 | 31.41619 | 389 ft | 1 kts | 345° |
| 2026-05-08 19:12 | 30.11543 | 31.41616 | 389 ft | 1 kts | 345° |